createdAt,value
2023-06-20T00:01:59.646Z,18.92
2023-06-20T00:05:05.151Z,18.94
2023-06-20T00:08:09.825Z,18.51
2023-06-20T00:11:14.289Z,18.37
2023-06-20T00:14:18.796Z,18.20
2023-06-20T00:17:23.402Z,18.02
2023-06-20T00:20:31.490Z,18.80
2023-06-20T00:23:35.962Z,18.01
2023-06-20T00:26:40.374Z,18.19
2023-06-20T00:29:44.955Z,18.45
2023-06-20T00:32:49.437Z,18.65
2023-06-20T00:35:55.626Z,18.60
2023-06-20T00:39:00.115Z,18.36
2023-06-20T00:42:05.426Z,18.55
2023-06-20T00:45:39.175Z,18.76
2023-06-20T00:48:44.003Z,18.25
2023-06-20T00:51:49.292Z,18.70
2023-06-20T00:54:54.116Z,18.48
2023-06-20T00:57:59.265Z,18.25
2023-06-20T01:01:03.716Z,18.26
2023-06-20T01:04:08.334Z,18.39
2023-06-20T01:07:15.911Z,18.42
2023-06-20T01:10:23.385Z,18.74
2023-06-20T01:13:27.752Z,18.93
2023-06-20T01:16:46.210Z,18.49
2023-06-20T01:20:13.755Z,18.43
2023-06-20T01:23:21.180Z,18.27
2023-06-20T01:26:38.735Z,17.71
2023-06-20T01:30:01.198Z,17.41
2023-06-20T01:33:07.320Z,17.36
2023-06-20T01:36:13.540Z,17.69
2023-06-20T01:39:22.581Z,17.86
2023-06-20T01:42:27.704Z,17.33
2023-06-20T01:45:34.862Z,17.37
2023-06-20T01:48:40.128Z,17.36
2023-06-20T01:51:45.710Z,17.96
2023-06-20T01:54:51.072Z,17.31
2023-06-20T01:57:58.657Z,17.24
2023-06-20T02:01:03.931Z,17.54
2023-06-20T02:04:08.701Z,16.95
2023-06-20T02:07:14.618Z,16.98
2023-06-20T02:10:20.573Z,17.26
2023-06-20T02:13:26.095Z,16.78
2023-06-20T02:16:31.625Z,16.91
2023-06-20T02:19:36.202Z,16.79
2023-06-20T02:22:43.816Z,17.31
2023-06-20T02:25:50.584Z,17.46
2023-06-20T02:28:57.549Z,17.58
2023-06-20T02:32:04.553Z,17.62
2023-06-20T02:35:10.243Z,17.45
2023-06-20T02:38:15.911Z,17.87
2023-06-20T02:41:22.075Z,17.36
2023-06-20T02:44:27.525Z,16.69
2023-06-20T02:47:40.625Z,17.08
2023-06-20T02:51:02.674Z,16.60
2023-06-20T02:54:10.643Z,17.36
2023-06-20T02:57:16.635Z,17.20
2023-06-20T03:00:22.723Z,17.55
2023-06-20T03:03:29.236Z,17.59
2023-06-20T03:06:37.943Z,17.73
2023-06-20T03:09:43.708Z,17.03
2023-06-20T03:12:48.330Z,16.68
2023-06-20T03:15:53.368Z,16.25
2023-06-20T03:18:58.539Z,17.08
2023-06-20T03:22:05.301Z,17.26
2023-06-20T03:25:09.960Z,17.79
2023-06-20T03:28:17.034Z,17.13
2023-06-20T03:31:27.726Z,17.64
2023-06-20T03:34:33.345Z,17.41
2023-06-20T03:37:38.675Z,17.66
2023-06-20T03:40:43.247Z,17.60
2023-06-20T03:43:49.679Z,17.58
2023-06-20T03:46:54.810Z,17.64
2023-06-20T03:49:59.658Z,17.95
2023-06-20T03:53:04.179Z,17.25
2023-06-20T03:56:08.819Z,17.25
2023-06-20T03:59:17.328Z,17.17
2023-06-20T04:02:21.924Z,17.52
2023-06-20T04:05:26.886Z,17.58
2023-06-20T04:08:31.944Z,18.01
2023-06-20T04:11:36.958Z,17.48
2023-06-20T04:14:41.602Z,17.67
2023-06-20T04:17:46.998Z,17.63
2023-06-20T04:20:51.520Z,17.65
2023-06-20T04:23:56.161Z,17.80
2023-06-20T04:27:00.675Z,18.21
2023-06-20T04:30:06.882Z,18.43
2023-06-20T04:33:11.892Z,18.32
2023-06-20T04:36:16.689Z,18.22
2023-06-20T04:39:23.464Z,18.92
2023-06-20T04:42:28.444Z,19.07
2023-06-20T04:45:33.463Z,18.93
2023-06-20T04:48:39.621Z,19.14
2023-06-20T04:51:44.325Z,18.95
2023-06-20T04:54:49.002Z,18.30
2023-06-20T04:57:55.591Z,18.07
2023-06-20T05:01:01.079Z,18.02
2023-06-20T05:04:06.047Z,18.32
2023-06-20T05:07:10.592Z,19.05
2023-06-20T05:10:15.909Z,19.09
2023-06-20T05:13:20.565Z,18.81
2023-06-20T05:16:25.268Z,17.06
2023-06-20T05:19:29.790Z,17.52
2023-06-20T05:22:37.502Z,17.58
2023-06-20T05:25:42.325Z,17.17
2023-06-20T05:28:47.009Z,17.76
2023-06-20T05:31:51.637Z,17.79
2023-06-20T05:34:56.276Z,18.39
2023-06-20T05:38:01.234Z,18.31
2023-06-20T05:41:05.777Z,18.88
2023-06-20T05:44:10.360Z,18.70
2023-06-20T05:47:18.984Z,19.89
2023-06-20T05:50:23.808Z,20.04
2023-06-20T05:53:28.482Z,20.69
2023-06-20T05:56:32.993Z,20.84
2023-06-20T05:59:37.436Z,20.98
2023-06-20T06:02:41.991Z,20.98
2023-06-20T06:05:46.569Z,20.89
2023-06-20T06:08:51.811Z,21.28
2023-06-20T06:11:56.869Z,22.06
2023-06-20T06:15:01.367Z,21.60
2023-06-20T06:18:06.045Z,22.54
2023-06-20T06:21:10.630Z,22.63
2023-06-20T06:24:15.218Z,22.46
2023-06-20T06:27:19.807Z,21.76
2023-06-20T06:30:24.821Z,22.57
2023-06-20T06:33:29.828Z,23.12
2023-06-20T06:36:35.088Z,23.01
2023-06-20T06:39:39.620Z,23.40
2023-06-20T06:42:45.405Z,24.04
2023-06-20T06:45:50.993Z,24.47
2023-06-20T06:48:55.545Z,25.08
2023-06-20T06:52:00.036Z,24.82
2023-06-20T06:55:04.718Z,24.02
2023-06-20T06:58:09.206Z,24.51
2023-06-20T07:01:13.650Z,24.80
2023-06-20T07:04:18.644Z,24.34
2023-06-20T07:07:23.180Z,23.86
2023-06-20T07:10:27.999Z,24.21
2023-06-20T07:13:32.508Z,24.88
2023-06-20T07:16:37.116Z,24.20
2023-06-20T07:19:41.676Z,23.92
2023-06-20T07:22:46.994Z,24.12
2023-06-20T07:25:51.407Z,25.39
2023-06-20T07:28:56.017Z,25.98
2023-06-20T07:32:00.629Z,25.20
2023-06-20T07:35:06.525Z,26.44
2023-06-20T07:38:11.203Z,26.48
2023-06-20T07:41:15.982Z,25.05
2023-06-20T07:44:20.539Z,25.70
2023-06-20T07:47:25.402Z,27.32
2023-06-20T07:50:30.193Z,26.53
2023-06-20T07:53:35.550Z,26.30
2023-06-20T07:56:40.043Z,26.64
2023-06-20T07:59:44.948Z,26.36
2023-06-20T08:02:49.656Z,26.49
2023-06-20T08:05:54.377Z,26.49
2023-06-20T08:08:59.530Z,26.62
2023-06-20T08:12:04.201Z,28.35
2023-06-20T08:15:09.021Z,28.62
2023-06-20T08:18:13.616Z,28.06
2023-06-20T08:21:18.036Z,28.06
2023-06-20T08:24:22.581Z,26.60
2023-06-20T08:27:27.072Z,27.65
2023-06-20T08:30:31.720Z,26.99
2023-06-20T08:33:36.241Z,27.62
2023-06-20T08:36:40.916Z,27.71
2023-06-20T08:39:45.342Z,28.32
2023-06-20T08:42:49.869Z,28.85
2023-06-20T08:45:56.948Z,27.88
2023-06-20T08:49:01.374Z,27.23
2023-06-20T08:52:10.624Z,28.13
2023-06-20T08:55:15.842Z,28.02
2023-06-20T08:58:21.294Z,28.50
2023-06-20T09:01:25.966Z,29.46
2023-06-20T09:04:30.759Z,29.33
2023-06-20T09:07:36.551Z,30.45
2023-06-20T09:10:41.408Z,30.52
2023-06-20T09:13:46.030Z,29.57
2023-06-20T09:16:50.455Z,30.39
2023-06-20T09:19:57.154Z,29.95
2023-06-20T09:23:02.024Z,29.60
2023-06-20T09:26:16.955Z,29.28
2023-06-20T09:29:21.511Z,29.65
2023-06-20T09:32:26.016Z,29.90
2023-06-20T09:35:31.147Z,30.32
2023-06-20T09:38:35.654Z,28.31
2023-06-20T09:41:47.008Z,29.68
2023-06-20T09:44:51.792Z,30.16
2023-06-20T09:47:57.104Z,28.93
2023-06-20T09:51:02.158Z,29.09
2023-06-20T09:54:08.446Z,29.23
2023-06-20T09:57:16.401Z,29.76
2023-06-20T10:00:21.540Z,30.12
2023-06-20T10:03:26.820Z,29.55
2023-06-20T10:06:31.538Z,30.16
2023-06-20T10:09:36.990Z,31.05
2023-06-20T10:12:43.434Z,31.12
2023-06-20T10:15:48.499Z,30.15
2023-06-20T10:18:53.002Z,31.44
2023-06-20T10:22:01.402Z,31.45
2023-06-20T10:25:15.863Z,30.66
2023-06-20T10:28:21.476Z,30.73
2023-06-20T10:31:26.045Z,29.56
2023-06-20T10:34:37.640Z,29.67
2023-06-20T10:37:42.761Z,33.42
2023-06-20T10:40:47.325Z,32.40
2023-06-20T10:43:53.110Z,32.17
2023-06-20T10:46:57.587Z,29.80
2023-06-20T10:50:02.069Z,30.10
2023-06-20T10:53:06.780Z,31.82
2023-06-20T10:56:24.168Z,31.30
2023-06-20T10:59:28.762Z,30.70
2023-06-20T11:02:34.714Z,31.38
2023-06-20T11:05:39.670Z,30.77
2023-06-20T11:08:45.784Z,34.65
2023-06-20T11:11:50.251Z,33.21
2023-06-20T11:14:54.665Z,32.65
2023-06-20T11:18:01.590Z,30.55
2023-06-20T11:21:06.389Z,32.50
2023-06-20T11:24:12.240Z,32.52
2023-06-20T11:27:17.829Z,31.86
2023-06-20T11:30:29.463Z,33.22
2023-06-20T11:33:33.878Z,35.30
2023-06-20T11:36:40.239Z,33.96
2023-06-20T11:39:48.111Z,34.29
2023-06-20T11:42:53.050Z,35.71
2023-06-20T11:46:01.244Z,34.54
2023-06-20T11:49:05.713Z,35.32
2023-06-20T11:52:10.591Z,35.35
2023-06-20T11:55:15.078Z,34.27
2023-06-20T11:58:20.319Z,33.88
2023-06-20T12:01:26.113Z,33.97
2023-06-20T12:04:33.296Z,31.51
2023-06-20T12:07:50.482Z,33.44
2023-06-20T12:11:00.061Z,32.87
2023-06-20T12:14:04.646Z,34.37
2023-06-20T12:17:10.437Z,33.96
2023-06-20T12:20:32.102Z,33.92
2023-06-20T12:23:37.168Z,32.87
2023-06-20T12:26:41.986Z,36.78
2023-06-20T12:29:46.777Z,37.07
2023-06-20T12:32:52.063Z,36.17
2023-06-20T12:35:56.609Z,38.10
2023-06-20T12:39:01.711Z,38.74
2023-06-20T12:42:06.278Z,37.60
2023-06-20T12:45:11.867Z,36.85
2023-06-20T12:48:16.551Z,36.41
2023-06-20T12:51:21.073Z,38.10
2023-06-20T12:54:25.542Z,35.23
2023-06-20T12:57:30.056Z,36.90
2023-06-20T13:00:35.098Z,37.31
2023-06-20T13:03:41.386Z,38.81
2023-06-20T13:06:46.395Z,37.61
2023-06-20T13:09:51.676Z,37.54
2023-06-20T13:12:57.632Z,38.49
2023-06-20T13:16:02.216Z,38.48
2023-06-20T13:19:09.746Z,37.93
2023-06-20T13:22:14.232Z,38.09
2023-06-20T13:25:19.174Z,37.25
2023-06-20T13:28:23.903Z,38.10
2023-06-20T13:31:28.407Z,38.65
2023-06-20T13:34:32.938Z,38.83
2023-06-20T13:37:38.355Z,38.10
2023-06-20T13:40:42.895Z,37.90
2023-06-20T13:43:47.306Z,38.06
2023-06-20T13:46:52.168Z,38.12
2023-06-20T13:49:56.744Z,34.98
2023-06-20T13:53:01.205Z,36.01
2023-06-20T13:56:05.735Z,37.08
2023-06-20T13:59:10.288Z,37.14
2023-06-20T14:02:14.875Z,38.28
2023-06-20T14:05:21.182Z,37.78
2023-06-20T14:08:26.250Z,38.96
2023-06-20T14:11:30.710Z,39.12
2023-06-20T14:14:35.222Z,38.54
2023-06-20T14:17:39.752Z,38.48
2023-06-20T14:20:44.388Z,36.78
2023-06-20T14:23:48.870Z,35.83
2023-06-20T14:26:55.647Z,37.84
2023-06-20T14:30:01.264Z,37.99
2023-06-20T14:33:06.052Z,35.55
2023-06-20T14:36:10.574Z,37.05
2023-06-20T14:39:15.054Z,37.33
2023-06-20T14:42:20.733Z,38.46
2023-06-20T14:45:25.295Z,37.90
2023-06-20T14:48:29.827Z,38.04
2023-06-20T14:51:34.307Z,38.01
2023-06-20T14:54:39.028Z,37.53
2023-06-20T14:57:43.482Z,36.56
2023-06-20T15:00:47.887Z,36.61
2023-06-20T15:03:52.676Z,36.66
2023-06-20T15:06:57.162Z,37.24
2023-06-20T15:10:02.079Z,37.02
2023-06-20T15:13:06.510Z,34.98
2023-06-20T15:16:10.994Z,36.25
2023-06-20T15:19:15.693Z,36.24
2023-06-20T15:22:20.369Z,38.46
2023-06-20T15:25:25.887Z,38.20
2023-06-20T15:28:30.289Z,38.68
2023-06-20T15:31:34.785Z,37.69
2023-06-20T15:34:39.343Z,37.70
2023-06-20T15:37:43.747Z,37.28
2023-06-20T15:40:48.674Z,39.06
2023-06-20T15:43:53.036Z,38.82
2023-06-20T15:46:57.622Z,37.32
2023-06-20T15:50:03.123Z,38.46
2023-06-20T15:53:07.687Z,37.85
2023-06-20T15:56:12.123Z,38.33
2023-06-20T15:59:17.782Z,38.30
2023-06-20T16:02:25.400Z,38.83
2023-06-20T16:05:30.161Z,37.98
2023-06-20T16:08:34.793Z,37.87
2023-06-20T16:11:39.260Z,38.28
2023-06-20T16:14:43.700Z,38.11
2023-06-20T16:17:49.633Z,37.33
2023-06-20T16:20:54.478Z,36.46
2023-06-20T16:24:00.079Z,36.42
2023-06-20T16:27:04.657Z,36.63
2023-06-20T16:30:10.837Z,36.56
2023-06-20T16:33:15.362Z,36.97
2023-06-20T16:36:19.908Z,36.61
2023-06-20T16:39:24.563Z,36.46
2023-06-20T16:42:29.041Z,36.60
2023-06-20T16:45:33.404Z,36.49
2023-06-20T16:48:38.029Z,36.50
2023-06-20T16:51:43.589Z,36.15
2023-06-20T16:54:48.041Z,36.30
2023-06-20T16:57:52.664Z,36.37
2023-06-20T17:00:57.215Z,36.13
2023-06-20T17:04:05.378Z,36.13
2023-06-20T17:07:09.773Z,35.45
2023-06-20T17:10:14.262Z,35.36
2023-06-20T17:13:19.020Z,34.92
2023-06-20T17:16:23.462Z,34.66
2023-06-20T17:19:28.339Z,33.97
2023-06-20T17:22:32.841Z,34.05
2023-06-20T17:25:37.413Z,34.23
2023-06-20T17:28:42.577Z,33.62
2023-06-20T17:31:47.143Z,33.65
2023-06-20T17:34:53.003Z,33.31
2023-06-20T17:37:57.455Z,32.76
2023-06-20T17:41:04.133Z,32.81
2023-06-20T17:44:08.673Z,32.91
2023-06-20T17:47:13.162Z,32.66
2023-06-20T17:50:17.646Z,33.24
2023-06-20T17:53:22.045Z,33.51
2023-06-20T17:56:26.573Z,32.53
2023-06-20T17:59:31.287Z,33.12
2023-06-20T18:02:35.898Z,31.93
2023-06-20T18:05:40.451Z,32.09
2023-06-20T18:08:45.141Z,32.17
2023-06-20T18:11:52.327Z,32.16
2023-06-20T18:14:57.118Z,31.55
2023-06-20T18:18:01.745Z,31.86
2023-06-20T18:21:11.375Z,31.22
2023-06-20T18:24:17.880Z,31.27
2023-06-20T18:27:22.512Z,31.01
2023-06-20T18:30:27.932Z,31.01
2023-06-20T18:33:33.035Z,30.87
2023-06-20T18:36:37.466Z,30.74
2023-06-20T18:39:42.054Z,30.79
2023-06-20T18:42:46.453Z,30.41
2023-06-20T18:45:50.888Z,30.33
2023-06-20T18:48:55.745Z,29.91
2023-06-20T18:52:00.313Z,29.35
2023-06-20T18:55:05.100Z,29.51
2023-06-20T18:58:09.600Z,29.27
2023-06-20T19:01:14.305Z,29.39
2023-06-20T19:04:18.919Z,29.07
2023-06-20T19:07:23.452Z,28.77
2023-06-20T19:10:28.283Z,28.67
2023-06-20T19:13:33.126Z,28.41
2023-06-20T19:16:38.001Z,28.49
2023-06-20T19:19:42.822Z,27.95
2023-06-20T19:22:51.388Z,27.90
2023-06-20T19:25:55.871Z,27.96
2023-06-20T19:29:00.416Z,27.99
2023-06-20T19:32:05.600Z,27.78
2023-06-20T19:35:10.715Z,27.65
2023-06-20T19:38:15.263Z,27.39
2023-06-20T19:41:19.737Z,27.15
2023-06-20T19:44:24.329Z,26.86
2023-06-20T19:47:28.976Z,27.46
2023-06-20T19:50:33.449Z,27.07
2023-06-20T19:53:38.353Z,26.96
2023-06-20T19:56:43.032Z,26.92
2023-06-20T19:59:48.138Z,26.93
2023-06-20T20:02:52.680Z,26.59
2023-06-20T20:05:57.461Z,26.21
2023-06-20T20:09:01.957Z,26.47
2023-06-20T20:12:07.277Z,26.32
2023-06-20T20:15:12.065Z,26.40
2023-06-20T20:18:16.491Z,25.99
2023-06-20T20:21:20.995Z,26.13
2023-06-20T20:24:25.616Z,26.06
2023-06-20T20:27:30.058Z,25.88
2023-06-20T20:30:34.553Z,25.80
2023-06-20T20:33:39.651Z,25.76
2023-06-20T20:36:44.098Z,25.91
2023-06-20T20:39:50.284Z,25.86
2023-06-20T20:42:54.708Z,25.39
2023-06-20T20:45:59.578Z,25.35
2023-06-20T20:49:04.430Z,25.29
2023-06-20T20:52:09.180Z,25.02
2023-06-20T20:55:13.738Z,25.22
2023-06-20T20:58:18.231Z,25.34
2023-06-20T21:01:22.798Z,24.84
2023-06-20T21:04:27.282Z,25.20
2023-06-20T21:07:31.751Z,25.33
2023-06-20T21:10:36.306Z,25.40
2023-06-20T21:13:40.671Z,24.72
2023-06-20T21:16:45.256Z,25.02
2023-06-20T21:19:49.714Z,24.83
2023-06-20T21:22:54.647Z,24.94
2023-06-20T21:25:59.044Z,24.83
2023-06-20T21:29:03.685Z,24.80
2023-06-20T21:32:08.216Z,24.83
2023-06-20T21:35:12.808Z,24.97
2023-06-20T21:38:17.275Z,24.74
2023-06-20T21:41:21.982Z,24.69
2023-06-20T21:44:26.629Z,24.60
2023-06-20T21:47:31.114Z,24.56
2023-06-20T21:50:36.026Z,24.71
2023-06-20T21:53:40.567Z,24.57
2023-06-20T21:56:45.170Z,24.40
2023-06-20T21:59:49.863Z,24.46
2023-06-20T22:02:54.400Z,24.20
2023-06-20T22:05:58.957Z,23.88
2023-06-20T22:09:03.686Z,24.19
2023-06-20T22:12:08.470Z,24.18
2023-06-20T22:15:14.323Z,23.73
2023-06-20T22:18:18.891Z,23.21
2023-06-20T22:21:23.690Z,23.69
2023-06-20T22:24:29.282Z,23.85
2023-06-20T22:27:34.654Z,23.75
2023-06-20T22:30:39.170Z,23.87
2023-06-20T22:33:43.674Z,23.02
2023-06-20T22:36:48.516Z,23.01
2023-06-20T22:39:53.049Z,22.88
2023-06-20T22:42:58.222Z,22.77
2023-06-20T22:46:04.551Z,21.87
2023-06-20T22:49:09.562Z,22.27
2023-06-20T22:52:14.410Z,22.38
2023-06-20T22:55:18.858Z,22.42
2023-06-20T22:58:23.428Z,22.64
2023-06-20T23:01:28.117Z,22.31
2023-06-20T23:04:34.056Z,22.46
2023-06-20T23:07:38.620Z,22.31
2023-06-20T23:10:43.048Z,22.50
2023-06-20T23:13:47.538Z,22.30
2023-06-20T23:16:52.199Z,22.10
2023-06-20T23:19:56.839Z,22.34
2023-06-20T23:23:01.261Z,22.25
2023-06-20T23:26:06.024Z,22.05
2023-06-20T23:29:10.517Z,22.42
2023-06-20T23:32:15.558Z,21.58
2023-06-20T23:35:20.059Z,21.55
2023-06-20T23:38:28.297Z,21.97
2023-06-20T23:41:33.009Z,21.99
2023-06-20T23:44:37.460Z,21.89
2023-06-20T23:47:45.018Z,21.88
2023-06-20T23:50:49.537Z,21.57
2023-06-20T23:53:54.025Z,21.68
2023-06-20T23:56:58.476Z,21.65
